createdAt,value
2022-11-29T00:00:52.601Z,9.60
2022-11-29T00:03:22.157Z,9.49
2022-11-29T00:05:51.683Z,9.59
2022-11-29T00:08:21.165Z,9.66
2022-11-29T00:10:50.668Z,9.67
2022-11-29T00:13:20.255Z,9.65
2022-11-29T00:15:52.359Z,9.56
2022-11-29T00:18:21.827Z,9.59
2022-11-29T00:20:51.484Z,9.54
2022-11-29T00:23:20.957Z,9.53
2022-11-29T00:25:50.488Z,9.54
2022-11-29T00:28:20.033Z,9.51
2022-11-29T00:30:52.189Z,9.46
2022-11-29T00:33:21.729Z,9.48
2022-11-29T00:35:51.435Z,9.46
2022-11-29T00:38:20.960Z,9.46
2022-11-29T00:40:54.028Z,9.47
2022-11-29T00:43:23.504Z,9.48
2022-11-29T00:45:55.623Z,9.51
2022-11-29T00:48:25.146Z,9.51
2022-11-29T00:50:54.659Z,9.49
2022-11-29T00:53:24.171Z,9.50
2022-11-29T00:55:53.930Z,9.51
2022-11-29T00:58:23.583Z,9.56
2022-11-29T01:00:55.801Z,9.57
2022-11-29T01:03:25.443Z,9.59
2022-11-29T01:05:54.928Z,9.60
2022-11-29T01:08:24.482Z,9.60
2022-11-29T01:10:53.977Z,9.62
2022-11-29T01:13:23.508Z,9.61
2022-11-29T01:16:00.700Z,9.63
2022-11-29T01:18:30.479Z,9.65
2022-11-29T01:21:01.196Z,9.59
2022-11-29T01:23:30.705Z,9.62
2022-11-29T01:26:01.367Z,9.62
2022-11-29T01:28:31.002Z,9.65
2022-11-29T01:31:07.423Z,9.59
2022-11-29T01:33:36.930Z,9.61
2022-11-29T01:36:07.304Z,9.58
2022-11-29T01:38:37.265Z,9.60
2022-11-29T01:41:08.135Z,9.56
2022-11-29T01:43:37.676Z,9.57
2022-11-29T01:46:09.810Z,9.56
2022-11-29T01:48:39.318Z,9.59
2022-11-29T01:51:08.907Z,9.57
2022-11-29T01:53:38.396Z,9.57
2022-11-29T01:56:08.368Z,9.59
2022-11-29T01:58:38.144Z,9.57
2022-11-29T02:01:10.234Z,9.57
2022-11-29T02:03:39.940Z,9.54
2022-11-29T02:06:09.456Z,9.56
2022-11-29T02:08:40.123Z,9.56
2022-11-29T02:11:42.230Z,9.55
2022-11-29T02:14:20.361Z,9.49
2022-11-29T02:16:56.767Z,9.40
2022-11-29T02:19:36.973Z,9.37
2022-11-29T02:22:08.183Z,9.32
2022-11-29T02:25:13.230Z,9.37
2022-11-29T02:28:12.564Z,9.33
2022-11-29T02:30:58.424Z,9.40
2022-11-29T02:33:57.158Z,9.45
2022-11-29T02:36:36.947Z,9.47
2022-11-29T02:39:16.894Z,9.42
2022-11-29T02:42:00.640Z,9.46
2022-11-29T02:44:59.747Z,9.47
2022-11-29T02:47:31.988Z,9.45
2022-11-29T02:50:23.850Z,9.43
2022-11-29T02:52:57.864Z,9.46
2022-11-29T02:55:31.198Z,9.41
2022-11-29T02:58:02.870Z,9.42
2022-11-29T03:00:32.428Z,9.47
2022-11-29T03:03:04.535Z,9.41
2022-11-29T03:05:44.739Z,9.51
2022-11-29T03:08:18.228Z,9.58
2022-11-29T03:10:54.312Z,9.62
2022-11-29T03:13:28.068Z,9.62
2022-11-29T03:16:01.313Z,9.64
2022-11-29T03:18:37.172Z,9.63
2022-11-29T03:21:12.636Z,9.64
2022-11-29T03:23:44.015Z,9.61
2022-11-29T03:26:14.303Z,9.60
2022-11-29T03:28:45.934Z,9.60
2022-11-29T03:31:18.238Z,9.57
2022-11-29T03:33:52.773Z,9.57
2022-11-29T03:36:28.463Z,9.59
2022-11-29T03:38:59.529Z,9.56
2022-11-29T03:41:30.482Z,9.62
2022-11-29T03:44:03.049Z,9.61
2022-11-29T03:46:34.942Z,9.65
2022-11-29T03:49:05.640Z,9.59
2022-11-29T03:51:48.032Z,9.61
2022-11-29T03:54:18.955Z,9.61
2022-11-29T03:56:49.243Z,9.63
2022-11-29T03:59:27.272Z,9.63
2022-11-29T04:02:05.436Z,9.61
2022-11-29T04:04:56.737Z,9.61
2022-11-29T04:07:34.091Z,9.71
2022-11-29T04:10:16.396Z,9.67
2022-11-29T04:13:15.815Z,9.65
2022-11-29T04:16:08.308Z,9.66
2022-11-29T04:19:01.886Z,9.70
2022-11-29T04:21:43.237Z,9.68
2022-11-29T04:24:37.666Z,9.73
2022-11-29T04:27:27.181Z,9.75
2022-11-29T04:30:11.187Z,9.77
2022-11-29T04:33:16.473Z,9.79
2022-11-29T04:35:54.702Z,9.74
2022-11-29T04:38:53.823Z,9.76
2022-11-29T04:41:43.660Z,9.76
2022-11-29T04:44:19.248Z,9.78
2022-11-29T04:46:54.568Z,9.78
2022-11-29T04:49:34.775Z,9.71
2022-11-29T04:52:28.098Z,9.70
2022-11-29T04:55:00.369Z,9.75
2022-11-29T04:57:35.700Z,9.82
2022-11-29T05:00:09.921Z,9.77
2022-11-29T05:02:43.726Z,9.52
2022-11-29T05:05:21.017Z,9.33
2022-11-29T05:07:54.623Z,9.50
2022-11-29T05:10:27.730Z,9.55
2022-11-29T05:13:02.498Z,9.66
2022-11-29T05:15:57.597Z,9.70
2022-11-29T05:18:40.114Z,9.71
2022-11-29T05:21:12.233Z,9.77
2022-11-29T05:23:47.266Z,9.79
2022-11-29T05:26:18.162Z,9.84
2022-11-29T05:28:53.612Z,9.86
2022-11-29T05:31:28.221Z,9.83
2022-11-29T05:34:24.816Z,9.70
2022-11-29T05:36:57.451Z,9.18
2022-11-29T05:39:38.936Z,9.08
2022-11-29T05:42:27.711Z,8.63
2022-11-29T05:45:00.918Z,8.80
2022-11-29T05:47:33.952Z,8.87
2022-11-29T05:50:06.264Z,9.17
2022-11-29T05:52:43.963Z,9.41
2022-11-29T05:55:24.678Z,9.56
2022-11-29T05:57:58.324Z,9.44
2022-11-29T06:00:31.887Z,9.55
2022-11-29T06:03:03.653Z,9.56
2022-11-29T06:05:36.926Z,9.60
2022-11-29T06:08:08.967Z,9.68
2022-11-29T06:10:40.055Z,9.79
2022-11-29T06:13:13.413Z,9.94
2022-11-29T06:16:14.315Z,9.91
2022-11-29T06:18:51.089Z,9.91
2022-11-29T06:21:25.224Z,9.85
2022-11-29T06:24:05.848Z,9.91
2022-11-29T06:26:44.915Z,9.90
2022-11-29T06:29:26.537Z,9.90
2022-11-29T06:32:02.356Z,9.83
2022-11-29T06:34:35.980Z,9.53
2022-11-29T06:37:07.329Z,9.35
2022-11-29T06:39:37.651Z,9.54
2022-11-29T06:42:07.484Z,9.64
2022-11-29T06:44:37.755Z,9.70
2022-11-29T06:47:11.888Z,9.75
2022-11-29T06:49:42.606Z,9.83
2022-11-29T06:52:18.661Z,9.92
2022-11-29T06:54:55.292Z,9.95
2022-11-29T06:57:27.499Z,9.93
2022-11-29T07:00:03.858Z,9.61
2022-11-29T07:03:06.554Z,9.29
2022-11-29T07:05:36.640Z,9.39
2022-11-29T07:08:07.587Z,9.52
2022-11-29T07:10:38.812Z,9.61
2022-11-29T07:13:08.867Z,9.70
2022-11-29T07:15:38.305Z,9.71
2022-11-29T07:18:17.332Z,9.76
2022-11-29T07:20:52.183Z,9.79
2022-11-29T07:23:24.800Z,9.87
2022-11-29T07:25:59.334Z,9.88
2022-11-29T07:28:36.411Z,9.75
2022-11-29T07:31:09.022Z,9.51
2022-11-29T07:33:44.962Z,9.34
2022-11-29T07:36:17.290Z,9.57
2022-11-29T07:38:54.408Z,9.61
2022-11-29T07:41:26.327Z,9.68
2022-11-29T07:43:59.129Z,9.74
2022-11-29T07:46:29.078Z,9.81
2022-11-29T07:49:01.221Z,9.83
2022-11-29T07:51:30.721Z,9.80
2022-11-29T07:54:00.193Z,9.82
2022-11-29T07:56:29.945Z,9.81
2022-11-29T07:58:59.493Z,9.83
2022-11-29T08:01:29.048Z,9.77
2022-11-29T08:04:01.125Z,9.78
2022-11-29T08:06:30.559Z,9.79
2022-11-29T08:09:00.168Z,9.85
2022-11-29T08:11:29.961Z,9.58
2022-11-29T08:13:59.919Z,9.69
2022-11-29T08:16:29.455Z,9.79
2022-11-29T08:19:01.588Z,9.81
2022-11-29T08:21:31.286Z,9.87
2022-11-29T08:24:00.764Z,9.98
2022-11-29T08:26:31.885Z,9.98
2022-11-29T08:29:01.658Z,10.02
2022-11-29T08:31:31.177Z,10.08
2022-11-29T08:34:03.332Z,10.14
2022-11-29T08:36:32.796Z,10.20
2022-11-29T08:39:08.997Z,10.16
2022-11-29T08:41:39.120Z,10.12
2022-11-29T08:44:08.676Z,9.99
2022-11-29T08:46:53.012Z,9.68
2022-11-29T08:49:25.066Z,9.86
2022-11-29T08:52:14.997Z,9.91
2022-11-29T08:54:41.927Z,9.92
2022-11-29T08:57:38.656Z,9.80
2022-11-29T09:00:00.885Z,9.60
2022-11-29T09:02:30.703Z,9.71
2022-11-29T09:05:02.781Z,9.81
2022-11-29T09:07:32.324Z,9.93
2022-11-29T09:10:05.016Z,9.93
2022-11-29T09:12:34.908Z,9.98
2022-11-29T09:15:04.421Z,10.08
2022-11-29T09:17:33.967Z,10.20
2022-11-29T09:20:06.587Z,10.28
2022-11-29T09:22:36.064Z,10.32
2022-11-29T09:25:05.616Z,10.37
2022-11-29T09:27:35.096Z,10.45
2022-11-29T09:30:04.588Z,10.51
2022-11-29T09:32:34.115Z,10.52
2022-11-29T09:35:06.275Z,10.50
2022-11-29T09:37:36.994Z,10.52
2022-11-29T09:40:07.189Z,10.53
2022-11-29T09:42:43.874Z,10.56
2022-11-29T09:45:14.421Z,10.64
2022-11-29T09:48:00.216Z,10.74
2022-11-29T09:50:35.396Z,10.77
2022-11-29T09:53:26.105Z,10.65
2022-11-29T09:56:11.590Z,10.45
2022-11-29T09:58:44.336Z,10.54
2022-11-29T10:01:15.621Z,10.68
2022-11-29T10:03:46.835Z,10.66
2022-11-29T10:06:20.637Z,10.90
2022-11-29T10:08:51.049Z,10.77
2022-11-29T10:11:22.019Z,10.61
2022-11-29T10:13:53.512Z,10.71
2022-11-29T10:16:26.694Z,10.72
2022-11-29T10:18:58.832Z,10.78
2022-11-29T10:21:32.481Z,10.95
2022-11-29T10:24:03.695Z,10.69
2022-11-29T10:26:35.318Z,10.63
2022-11-29T10:29:05.109Z,10.74
2022-11-29T10:31:35.723Z,10.73
2022-11-29T10:34:10.613Z,10.90
2022-11-29T10:36:44.373Z,10.88
2022-11-29T10:39:16.441Z,10.59
2022-11-29T10:41:46.271Z,10.41
2022-11-29T10:44:16.082Z,10.48
2022-11-29T10:46:45.575Z,10.56
2022-11-29T10:49:16.524Z,10.56
2022-11-29T10:51:48.741Z,10.79
2022-11-29T10:54:24.355Z,11.04
2022-11-29T10:56:53.836Z,11.10
2022-11-29T10:59:24.457Z,11.23
2022-11-29T11:01:54.268Z,11.38
2022-11-29T11:04:31.691Z,11.20
2022-11-29T11:07:04.150Z,11.30
2022-11-29T11:09:37.821Z,11.30
2022-11-29T11:12:08.794Z,11.39
2022-11-29T11:14:39.331Z,11.39
2022-11-29T11:17:26.886Z,11.41
2022-11-29T11:20:00.945Z,11.34
2022-11-29T11:22:33.148Z,11.36
2022-11-29T11:25:03.587Z,11.40
2022-11-29T11:27:34.105Z,11.43
2022-11-29T11:30:03.661Z,11.39
2022-11-29T11:32:33.145Z,11.44
2022-11-29T11:35:03.490Z,11.35
2022-11-29T11:37:36.162Z,11.48
2022-11-29T11:40:21.579Z,11.47
2022-11-29T11:42:51.355Z,11.57
2022-11-29T11:45:33.278Z,11.62
2022-11-29T11:48:04.645Z,11.59
2022-11-29T11:50:35.356Z,11.53
2022-11-29T11:53:08.549Z,11.66
2022-11-29T11:55:40.006Z,11.58
2022-11-29T11:58:17.639Z,11.55
2022-11-29T12:01:06.288Z,11.66
2022-11-29T12:03:39.129Z,11.69
2022-11-29T12:06:26.409Z,11.81
2022-11-29T12:09:00.460Z,11.86
2022-11-29T12:11:29.964Z,11.78
2022-11-29T12:13:59.915Z,11.76
2022-11-29T12:16:32.721Z,11.80
2022-11-29T12:19:03.750Z,11.96
2022-11-29T12:21:36.130Z,12.03
2022-11-29T12:24:12.959Z,11.98
2022-11-29T12:26:59.141Z,11.96
2022-11-29T12:29:30.312Z,12.11
2022-11-29T12:32:05.439Z,12.08
2022-11-29T12:34:43.609Z,12.18
2022-11-29T12:37:16.399Z,12.22
2022-11-29T12:39:53.045Z,12.30
2022-11-29T12:42:28.036Z,12.33
2022-11-29T12:45:01.518Z,12.44
2022-11-29T12:47:38.696Z,12.39
2022-11-29T12:50:19.246Z,12.45
2022-11-29T12:52:50.871Z,12.51
2022-11-29T12:55:26.073Z,12.55
2022-11-29T12:58:00.440Z,12.49
2022-11-29T13:00:31.706Z,12.19
2022-11-29T13:03:04.961Z,12.18
2022-11-29T13:05:42.214Z,12.15
2022-11-29T13:08:21.610Z,11.87
2022-11-29T13:10:58.967Z,11.84
2022-11-29T13:13:32.890Z,11.97
2022-11-29T13:16:04.869Z,11.97
2022-11-29T13:18:36.675Z,11.96
2022-11-29T13:21:07.851Z,11.96
2022-11-29T13:24:07.437Z,12.06
2022-11-29T13:26:30.638Z,12.11
2022-11-29T13:29:00.150Z,12.15
2022-11-29T13:31:29.636Z,12.20
2022-11-29T13:34:01.652Z,12.22
2022-11-29T13:36:45.098Z,12.17
2022-11-29T13:39:22.208Z,12.15
2022-11-29T13:41:58.255Z,12.14
2022-11-29T13:44:31.665Z,12.17
2022-11-29T13:47:06.141Z,12.09
2022-11-29T13:49:57.262Z,12.13
2022-11-29T13:52:41.730Z,12.18
2022-11-29T13:55:23.119Z,12.17
2022-11-29T14:00:51.678Z,12.06
2022-11-29T14:03:30.864Z,12.00
2022-11-29T14:06:24.726Z,12.08
2022-11-29T14:09:24.785Z,11.97
2022-11-29T14:11:59.425Z,11.95
2022-11-29T14:14:32.052Z,11.96
2022-11-29T14:17:02.331Z,11.96
2022-11-29T14:19:33.973Z,11.87
2022-11-29T14:22:23.327Z,11.87
2022-11-29T14:25:50.687Z,11.82
2022-11-29T14:28:32.388Z,11.83
2022-11-29T14:31:04.991Z,11.85
2022-11-29T14:33:59.188Z,11.90
2022-11-29T14:36:36.173Z,11.79
2022-11-29T14:39:14.720Z,11.79
2022-11-29T14:41:52.812Z,11.87
2022-11-29T14:44:24.838Z,11.78
2022-11-29T14:47:05.329Z,11.86
2022-11-29T14:49:35.540Z,11.87
2022-11-29T14:52:12.065Z,11.96
2022-11-29T14:54:55.817Z,11.83
2022-11-29T14:57:55.552Z,11.80
2022-11-29T15:00:25.999Z,11.74
2022-11-29T15:02:58.969Z,11.72
2022-11-29T15:05:33.702Z,11.72
2022-11-29T15:08:09.306Z,11.73
2022-11-29T15:10:40.029Z,11.77
2022-11-29T15:13:10.851Z,11.69
2022-11-29T15:15:44.710Z,11.63
2022-11-29T15:18:25.397Z,11.65
2022-11-29T15:21:06.470Z,11.62
2022-11-29T15:23:42.674Z,11.45
2022-11-29T15:26:18.963Z,11.44
2022-11-29T15:28:48.465Z,11.38
2022-11-29T15:31:19.494Z,11.37
2022-11-29T15:33:51.849Z,11.39
2022-11-29T15:36:22.196Z,11.36
2022-11-29T15:38:52.582Z,11.31
2022-11-29T15:41:23.373Z,11.27
2022-11-29T15:43:55.326Z,11.20
2022-11-29T15:46:26.940Z,11.31
2022-11-29T15:48:58.965Z,11.05
2022-11-29T15:51:30.593Z,11.00
2022-11-29T15:54:12.078Z,10.98
2022-11-29T15:56:43.842Z,11.09
2022-11-29T15:59:18.996Z,11.00
2022-11-29T16:01:49.015Z,11.04
2022-11-29T16:04:21.933Z,11.09
2022-11-29T16:06:51.822Z,10.99
2022-11-29T16:09:23.704Z,11.00
2022-11-29T16:11:53.203Z,10.99
2022-11-29T16:14:24.877Z,10.94
2022-11-29T16:16:55.583Z,10.94
2022-11-29T16:19:31.804Z,10.95
2022-11-29T16:22:02.836Z,10.90
2022-11-29T16:24:32.359Z,10.88
2022-11-29T16:27:02.918Z,10.83
2022-11-29T16:29:33.468Z,10.81
2022-11-29T16:32:03.049Z,10.75
2022-11-29T16:34:35.651Z,10.74
2022-11-29T16:37:06.364Z,10.70
2022-11-29T16:39:35.917Z,10.55
2022-11-29T16:42:09.315Z,10.56
2022-11-29T16:45:05.080Z,10.51
2022-11-29T16:47:35.126Z,10.57
2022-11-29T16:50:17.211Z,10.53
2022-11-29T16:52:48.851Z,10.52
2022-11-29T16:55:20.690Z,10.51
2022-11-29T16:57:50.236Z,10.48
2022-11-29T17:00:26.538Z,10.43
2022-11-29T17:02:56.341Z,10.46
2022-11-29T17:05:28.471Z,10.43
2022-11-29T17:07:58.201Z,10.38
2022-11-29T17:10:28.920Z,10.29
2022-11-29T17:12:58.515Z,9.84
2022-11-29T17:15:27.976Z,9.91
2022-11-29T17:17:57.527Z,10.03
2022-11-29T17:20:29.619Z,10.10
2022-11-29T17:22:59.087Z,10.05
2022-11-29T17:25:28.570Z,10.17
2022-11-29T17:27:58.115Z,9.89
2022-11-29T17:30:28.905Z,10.00
2022-11-29T17:32:58.395Z,10.09
2022-11-29T17:35:30.520Z,10.11
2022-11-29T17:38:01.340Z,10.20
2022-11-29T17:40:30.847Z,10.14
2022-11-29T17:43:00.341Z,10.15
2022-11-29T17:45:30.150Z,10.00
2022-11-29T17:48:01.750Z,10.18
2022-11-29T17:50:33.808Z,10.20
2022-11-29T17:53:03.302Z,10.20
2022-11-29T17:55:32.753Z,10.19
2022-11-29T17:58:02.222Z,10.25
2022-11-29T18:00:31.730Z,10.22
2022-11-29T18:03:01.238Z,10.21
2022-11-29T18:05:34.878Z,10.20
2022-11-29T18:08:05.906Z,10.23
2022-11-29T18:10:36.064Z,10.20
2022-11-29T18:13:05.557Z,10.25
2022-11-29T18:15:35.417Z,10.11
2022-11-29T18:18:04.907Z,10.16
2022-11-29T18:20:37.001Z,10.13
2022-11-29T18:23:08.204Z,10.09
2022-11-29T18:25:39.467Z,10.10
2022-11-29T18:28:11.343Z,10.09
2022-11-29T18:30:40.912Z,10.12
2022-11-29T18:43:58.548Z,10.16
2022-11-29T18:47:01.846Z,10.13
2022-11-29T18:50:40.463Z,10.05
2022-11-29T18:53:30.081Z,10.13
2022-11-29T18:56:18.717Z,10.18
2022-11-29T19:02:31.176Z,10.03
2022-11-29T19:15:30.906Z,10.11
2022-11-29T19:29:29.725Z,10.11
2022-11-29T19:33:31.401Z,10.14
2022-11-29T20:02:32.238Z,10.17
2022-11-29T20:05:38.523Z,10.21
2022-11-29T20:08:21.932Z,10.25
2022-11-29T20:10:59.629Z,10.26
2022-11-29T20:13:42.964Z,10.33
2022-11-29T20:16:32.132Z,10.22
2022-11-29T20:19:05.796Z,10.33
2022-11-29T20:21:44.426Z,10.28
2022-11-29T20:24:22.653Z,10.35
2022-11-29T20:26:53.658Z,10.35
2022-11-29T20:29:39.863Z,10.45
2022-11-29T20:36:17.327Z,10.27
2022-11-29T20:39:22.014Z,10.22
2022-11-29T20:45:27.603Z,10.12
2022-11-29T20:48:21.268Z,10.13
2022-11-29T20:51:18.087Z,10.02
2022-11-29T20:53:51.774Z,10.08
2022-11-29T20:56:33.031Z,10.15
2022-11-29T20:59:15.481Z,10.04
2022-11-29T21:02:06.304Z,10.14
2022-11-29T21:04:45.552Z,9.90
2022-11-29T21:07:23.655Z,9.94
2022-11-29T21:10:02.423Z,9.90
2022-11-29T21:13:05.257Z,9.79
2022-11-29T21:15:55.887Z,9.90
2022-11-29T21:18:35.577Z,9.93
2022-11-29T21:21:23.931Z,9.75
2022-11-29T21:24:44.521Z,9.78
2022-11-29T21:27:28.951Z,9.91
2022-11-29T21:30:46.760Z,9.89
2022-11-29T21:34:28.851Z,10.01
2022-11-29T21:37:38.018Z,10.07
2022-11-29T21:40:21.760Z,9.96
2022-11-29T21:42:54.440Z,10.01
2022-11-29T21:45:32.176Z,9.99
2022-11-29T21:48:28.389Z,10.02
2022-11-29T21:51:02.075Z,10.01
2022-11-29T21:53:36.563Z,9.88
2022-11-29T21:56:16.406Z,9.95
2022-11-29T21:58:52.010Z,9.93
2022-11-29T22:01:37.219Z,9.92
2022-11-29T22:04:23.609Z,9.91
2022-11-29T22:07:22.714Z,9.91
2022-11-29T22:10:14.274Z,9.90
2022-11-29T22:12:52.534Z,9.89
2022-11-29T22:15:29.144Z,9.87
2022-11-29T22:18:45.258Z,9.91
2022-11-29T22:21:30.540Z,9.91
2022-11-29T22:24:10.021Z,9.88
2022-11-29T22:27:13.157Z,9.91
2022-11-29T22:32:43.233Z,9.90
2022-11-29T22:35:28.558Z,9.87
2022-11-29T22:41:04.148Z,9.87
2022-11-29T22:43:38.757Z,9.85
2022-11-29T22:46:19.252Z,9.76
2022-11-29T22:48:58.087Z,9.83
2022-11-29T22:51:31.757Z,9.81
2022-11-29T22:54:05.521Z,9.81
2022-11-29T22:56:36.531Z,9.82
2022-11-29T22:59:09.937Z,9.86
2022-11-29T23:01:40.616Z,9.88
2022-11-29T23:04:10.646Z,9.92
2022-11-29T23:06:44.442Z,9.83
2022-11-29T23:09:16.614Z,9.87
2022-11-29T23:11:51.096Z,9.90
2022-11-29T23:14:22.412Z,9.88
2022-11-29T23:16:52.163Z,9.91
2022-11-29T23:19:21.976Z,9.88
2022-11-29T23:21:56.426Z,9.94
2022-11-29T23:24:26.270Z,9.97
2022-11-29T23:26:56.040Z,9.86
2022-11-29T23:29:25.715Z,10.02
2022-11-29T23:31:55.653Z,9.99
2022-11-29T23:34:25.421Z,10.02
2022-11-29T23:36:57.675Z,10.06
2022-11-29T23:39:27.438Z,10.06
2022-11-29T23:41:57.099Z,10.08
2022-11-29T23:44:26.975Z,9.89
2022-11-29T23:46:56.689Z,9.75
2022-11-29T23:49:26.357Z,9.89
2022-11-29T23:51:58.854Z,9.52
2022-11-29T23:54:28.682Z,9.52
2022-11-29T23:56:58.526Z,9.69
2022-11-29T23:59:28.090Z,9.82
